sensor_id;sensor_type;location;lat;lon;timestamp;P1;P2;P0
72023;PMS5003;59889;50.700;5.440;2023-07-08T00:00:45;4;4;
72023;PMS5003;59889;50.700;5.440;2023-07-08T00:03:10;4;4;
72023;PMS5003;59889;50.700;5.440;2023-07-08T00:05:36;5;4;
72023;PMS5003;59889;50.700;5.440;2023-07-08T00:08:02;3;3;
72023;PMS5003;59889;50.700;5.440;2023-07-08T00:10:28;2;2;
72023;PMS5003;59889;50.700;5.440;2023-07-08T00:12:54;6;5;
72023;PMS5003;59889;50.700;5.440;2023-07-08T00:15:20;4;4;
72023;PMS5003;59889;50.700;5.440;2023-07-08T00:17:45;5;5;
72023;PMS5003;59889;50.700;5.440;2023-07-08T00:20:12;6;5;
72023;PMS5003;59889;50.700;5.440;2023-07-08T00:22:37;5;5;
72023;PMS5003;59889;50.700;5.440;2023-07-08T00:25:03;4;4;
72023;PMS5003;59889;50.700;5.440;2023-07-08T00:27:29;4;3;
72023;PMS5003;59889;50.700;5.440;2023-07-08T00:29:55;4;4;
72023;PMS5003;59889;50.700;5.440;2023-07-08T00:32:20;3;2;
72023;PMS5003;59889;50.700;5.440;2023-07-08T00:34:46;5;5;
72023;PMS5003;59889;50.700;5.440;2023-07-08T00:37:12;5;5;
72023;PMS5003;59889;50.700;5.440;2023-07-08T00:39:38;4;4;
72023;PMS5003;59889;50.700;5.440;2023-07-08T00:42:09;4;4;
72023;PMS5003;59889;50.700;5.440;2023-07-08T00:44:30;5;4;
72023;PMS5003;59889;50.700;5.440;2023-07-08T00:46:57;5;5;
72023;PMS5003;59889;50.700;5.440;2023-07-08T00:49:24;6;5;
72023;PMS5003;59889;50.700;5.440;2023-07-08T00:51:47;6;4;
72023;PMS5003;59889;50.700;5.440;2023-07-08T00:54:13;4;4;
72023;PMS5003;59889;50.700;5.440;2023-07-08T00:56:39;5;5;
72023;PMS5003;59889;50.700;5.440;2023-07-08T00:59:05;4;4;
72023;PMS5003;59889;50.700;5.440;2023-07-08T01:01:31;5;5;
72023;PMS5003;59889;50.700;5.440;2023-07-08T01:03:58;4;3;
72023;PMS5003;59889;50.700;5.440;2023-07-08T01:06:23;4;4;
72023;PMS5003;59889;50.700;5.440;2023-07-08T01:08:48;5;5;
72023;PMS5003;59889;50.700;5.440;2023-07-08T01:11:14;6;5;
72023;PMS5003;59889;50.700;5.440;2023-07-08T01:13:40;5;4;
72023;PMS5003;59889;50.700;5.440;2023-07-08T01:16:06;3;3;
72023;PMS5003;59889;50.700;5.440;2023-07-08T01:18:31;4;4;
72023;PMS5003;59889;50.700;5.440;2023-07-08T01:21:00;4;3;
72023;PMS5003;59889;50.700;5.440;2023-07-08T01:23:23;3;3;
72023;PMS5003;59889;50.700;5.440;2023-07-08T01:25:49;3;3;
72023;PMS5003;59889;50.700;5.440;2023-07-08T01:28:15;2;2;
72023;PMS5003;59889;50.700;5.440;2023-07-08T01:30:41;5;4;
72023;PMS5003;59889;50.700;5.440;2023-07-08T01:33:07;4;4;
72023;PMS5003;59889;50.700;5.440;2023-07-08T01:35:32;4;4;
72023;PMS5003;59889;50.700;5.440;2023-07-08T01:37:59;3;3;
72023;PMS5003;59889;50.700;5.440;2023-07-08T01:40:25;4;3;
72023;PMS5003;59889;50.700;5.440;2023-07-08T01:42:50;5;5;
72023;PMS5003;59889;50.700;5.440;2023-07-08T01:45:16;5;5;
72023;PMS5003;59889;50.700;5.440;2023-07-08T01:47:42;4;4;
72023;PMS5003;59889;50.700;5.440;2023-07-08T01:50:07;4;4;
72023;PMS5003;59889;50.700;5.440;2023-07-08T01:52:33;5;5;
72023;PMS5003;59889;50.700;5.440;2023-07-08T01:54:59;4;4;
72023;PMS5003;59889;50.700;5.440;2023-07-08T01:57:25;5;4;
72023;PMS5003;59889;50.700;5.440;2023-07-08T01:59:51;5;5;
72023;PMS5003;59889;50.700;5.440;2023-07-08T02:02:16;5;5;
72023;PMS5003;59889;50.700;5.440;2023-07-08T02:04:42;4;3;
72023;PMS5003;59889;50.700;5.440;2023-07-08T02:07:08;3;3;
72023;PMS5003;59889;50.700;5.440;2023-07-08T02:09:34;4;4;
72023;PMS5003;59889;50.700;5.440;2023-07-08T02:12:00;6;6;
72023;PMS5003;59889;50.700;5.440;2023-07-08T02:14:26;4;4;
72023;PMS5003;59889;50.700;5.440;2023-07-08T02:16:51;5;5;
72023;PMS5003;59889;50.700;5.440;2023-07-08T02:19:18;5;5;
72023;PMS5003;59889;50.700;5.440;2023-07-08T02:21:43;5;5;
72023;PMS5003;59889;50.700;5.440;2023-07-08T02:24:09;3;3;
72023;PMS5003;59889;50.700;5.440;2023-07-08T02:26:35;5;5;
72023;PMS5003;59889;50.700;5.440;2023-07-08T02:29:01;4;4;
72023;PMS5003;59889;50.700;5.440;2023-07-08T02:31:27;3;3;
72023;PMS5003;59889;50.700;5.440;2023-07-08T02:33:52;4;4;
72023;PMS5003;59889;50.700;5.440;2023-07-08T02:36:18;4;4;
72023;PMS5003;59889;50.700;5.440;2023-07-08T02:38:44;5;5;
72023;PMS5003;59889;50.700;5.440;2023-07-08T02:41:10;4;4;
72023;PMS5003;59889;50.700;5.440;2023-07-08T02:43:36;4;4;
72023;PMS5003;59889;50.700;5.440;2023-07-08T02:46:02;3;3;
72023;PMS5003;59889;50.700;5.440;2023-07-08T02:48:27;2;2;
72023;PMS5003;59889;50.700;5.440;2023-07-08T02:50:58;4;4;
72023;PMS5003;59889;50.700;5.440;2023-07-08T02:53:19;3;3;
72023;PMS5003;59889;50.700;5.440;2023-07-08T02:55:45;5;4;
72023;PMS5003;59889;50.700;5.440;2023-07-08T02:58:11;4;4;
72023;PMS5003;59889;50.700;5.440;2023-07-08T03:00:37;4;4;
72023;PMS5003;59889;50.700;5.440;2023-07-08T03:03:02;5;5;
72023;PMS5003;59889;50.700;5.440;2023-07-08T03:05:28;4;4;
72023;PMS5003;59889;50.700;5.440;2023-07-08T03:07:54;4;4;
72023;PMS5003;59889;50.700;5.440;2023-07-08T03:10:20;3;3;
72023;PMS5003;59889;50.700;5.440;2023-07-08T03:12:46;5;4;
72023;PMS5003;59889;50.700;5.440;2023-07-08T03:15:12;4;4;
72023;PMS5003;59889;50.700;5.440;2023-07-08T03:17:37;4;3;
72023;PMS5003;59889;50.700;5.440;2023-07-08T03:20:04;3;3;
72023;PMS5003;59889;50.700;5.440;2023-07-08T03:22:29;5;3;
72023;PMS5003;59889;50.700;5.440;2023-07-08T03:24:55;4;4;
72023;PMS5003;59889;50.700;5.440;2023-07-08T03:27:21;4;4;
72023;PMS5003;59889;50.700;5.440;2023-07-08T03:29:47;3;3;
72023;PMS5003;59889;50.700;5.440;2023-07-08T03:32:12;3;3;
72023;PMS5003;59889;50.700;5.440;2023-07-08T03:34:38;5;5;
72023;PMS5003;59889;50.700;5.440;2023-07-08T03:37:04;5;4;
72023;PMS5003;59889;50.700;5.440;2023-07-08T03:39:30;5;5;
72023;PMS5003;59889;50.700;5.440;2023-07-08T03:41:56;4;3;
72023;PMS5003;59889;50.700;5.440;2023-07-08T03:44:22;5;4;
72023;PMS5003;59889;50.700;5.440;2023-07-08T03:46:48;5;4;
72023;PMS5003;59889;50.700;5.440;2023-07-08T03:49:13;4;4;
72023;PMS5003;59889;50.700;5.440;2023-07-08T03:51:39;4;4;
72023;PMS5003;59889;50.700;5.440;2023-07-08T03:54:05;4;4;
72023;PMS5003;59889;50.700;5.440;2023-07-08T03:56:31;5;5;
72023;PMS5003;59889;50.700;5.440;2023-07-08T03:58:57;4;4;
72023;PMS5003;59889;50.700;5.440;2023-07-08T04:01:23;4;3;
72023;PMS5003;59889;50.700;5.440;2023-07-08T04:03:49;5;5;
72023;PMS5003;59889;50.700;5.440;2023-07-08T04:06:14;3;3;
72023;PMS5003;59889;50.700;5.440;2023-07-08T04:08:40;4;4;
72023;PMS5003;59889;50.700;5.440;2023-07-08T04:11:06;6;6;
72023;PMS5003;59889;50.700;5.440;2023-07-08T04:13:32;4;4;
72023;PMS5003;59889;50.700;5.440;2023-07-08T04:15:58;4;4;
72023;PMS5003;59889;50.700;5.440;2023-07-08T04:18:23;4;3;
72023;PMS5003;59889;50.700;5.440;2023-07-08T04:20:49;6;5;
72023;PMS5003;59889;50.700;5.440;2023-07-08T04:23:15;3;3;
72023;PMS5003;59889;50.700;5.440;2023-07-08T04:25:41;4;4;
72023;PMS5003;59889;50.700;5.440;2023-07-08T04:28:07;3;3;
72023;PMS5003;59889;50.700;5.440;2023-07-08T04:30:32;5;4;
72023;PMS5003;59889;50.700;5.440;2023-07-08T04:32:58;3;3;
72023;PMS5003;59889;50.700;5.440;2023-07-08T04:35:24;4;4;
72023;PMS5003;59889;50.700;5.440;2023-07-08T04:37:50;5;5;
72023;PMS5003;59889;50.700;5.440;2023-07-08T04:40:17;4;4;
72023;PMS5003;59889;50.700;5.440;2023-07-08T04:42:42;5;4;
72023;PMS5003;59889;50.700;5.440;2023-07-08T04:45:08;6;5;
72023;PMS5003;59889;50.700;5.440;2023-07-08T04:47:33;3;3;
72023;PMS5003;59889;50.700;5.440;2023-07-08T04:49:59;3;3;
72023;PMS5003;59889;50.700;5.440;2023-07-08T04:52:25;5;5;
72023;PMS5003;59889;50.700;5.440;2023-07-08T04:54:51;6;5;
72023;PMS5003;59889;50.700;5.440;2023-07-08T04:57:17;5;4;
72023;PMS5003;59889;50.700;5.440;2023-07-08T04:59:43;5;5;
72023;PMS5003;59889;50.700;5.440;2023-07-08T05:02:08;4;4;
72023;PMS5003;59889;50.700;5.440;2023-07-08T05:04:34;9;8;
72023;PMS5003;59889;50.700;5.440;2023-07-08T05:07:00;7;7;
72023;PMS5003;59889;50.700;5.440;2023-07-08T05:09:26;13;12;
72023;PMS5003;59889;50.700;5.440;2023-07-08T05:11:52;10;9;
72023;PMS5003;59889;50.700;5.440;2023-07-08T05:14:17;12;11;
72023;PMS5003;59889;50.700;5.440;2023-07-08T05:16:43;13;12;
72023;PMS5003;59889;50.700;5.440;2023-07-08T05:19:09;10;10;
72023;PMS5003;59889;50.700;5.440;2023-07-08T05:21:34;14;12;
72023;PMS5003;59889;50.700;5.440;2023-07-08T05:24:00;13;13;
72023;PMS5003;59889;50.700;5.440;2023-07-08T05:26:26;13;11;
72023;PMS5003;59889;50.700;5.440;2023-07-08T05:28:52;13;13;
72023;PMS5003;59889;50.700;5.440;2023-07-08T05:31:18;11;11;
72023;PMS5003;59889;50.700;5.440;2023-07-08T05:33:44;14;13;
72023;PMS5003;59889;50.700;5.440;2023-07-08T05:36:09;10;9;
72023;PMS5003;59889;50.700;5.440;2023-07-08T05:38:34;12;12;
72023;PMS5003;59889;50.700;5.440;2023-07-08T05:40:59;13;12;
72023;PMS5003;59889;50.700;5.440;2023-07-08T05:43:25;15;13;
72023;PMS5003;59889;50.700;5.440;2023-07-08T05:45:50;11;10;
72023;PMS5003;59889;50.700;5.440;2023-07-08T05:48:15;15;14;
72023;PMS5003;59889;50.700;5.440;2023-07-08T05:50:40;14;13;
72023;PMS5003;59889;50.700;5.440;2023-07-08T05:53:05;14;13;
72023;PMS5003;59889;50.700;5.440;2023-07-08T05:55:30;15;14;
72023;PMS5003;59889;50.700;5.440;2023-07-08T05:57:56;15;13;
72023;PMS5003;59889;50.700;5.440;2023-07-08T06:00:22;14;12;
72023;PMS5003;59889;50.700;5.440;2023-07-08T06:02:46;14;14;
72023;PMS5003;59889;50.700;5.440;2023-07-08T06:05:11;12;12;
72023;PMS5003;59889;50.700;5.440;2023-07-08T06:07:37;15;14;
72023;PMS5003;59889;50.700;5.440;2023-07-08T06:10:02;15;14;
72023;PMS5003;59889;50.700;5.440;2023-07-08T06:12:27;16;13;
72023;PMS5003;59889;50.700;5.440;2023-07-08T06:14:53;15;14;
72023;PMS5003;59889;50.700;5.440;2023-07-08T06:17:18;11;11;
72023;PMS5003;59889;50.700;5.440;2023-07-08T06:19:43;17;15;
72023;PMS5003;59889;50.700;5.440;2023-07-08T06:22:09;15;14;
72023;PMS5003;59889;50.700;5.440;2023-07-08T06:24:34;15;15;
72023;PMS5003;59889;50.700;5.440;2023-07-08T06:26:59;16;15;
72023;PMS5003;59889;50.700;5.440;2023-07-08T06:29:24;14;13;
72023;PMS5003;59889;50.700;5.440;2023-07-08T06:31:50;15;14;
72023;PMS5003;59889;50.700;5.440;2023-07-08T06:34:15;15;14;
72023;PMS5003;59889;50.700;5.440;2023-07-08T06:36:41;13;12;
72023;PMS5003;59889;50.700;5.440;2023-07-08T06:39:07;14;13;
72023;PMS5003;59889;50.700;5.440;2023-07-08T06:41:32;14;14;
72023;PMS5003;59889;50.700;5.440;2023-07-08T06:43:58;14;13;
72023;PMS5003;59889;50.700;5.440;2023-07-08T06:46:23;18;17;
72023;PMS5003;59889;50.700;5.440;2023-07-08T06:48:48;17;15;
72023;PMS5003;59889;50.700;5.440;2023-07-08T06:51:14;12;12;
72023;PMS5003;59889;50.700;5.440;2023-07-08T06:53:40;15;14;
72023;PMS5003;59889;50.700;5.440;2023-07-08T06:56:06;16;14;
72023;PMS5003;59889;50.700;5.440;2023-07-08T06:58:32;17;16;
72023;PMS5003;59889;50.700;5.440;2023-07-08T07:00:57;15;13;
72023;PMS5003;59889;50.700;5.440;2023-07-08T07:03:23;16;14;
72023;PMS5003;59889;50.700;5.440;2023-07-08T07:05:49;15;14;
72023;PMS5003;59889;50.700;5.440;2023-07-08T07:08:15;11;11;
72023;PMS5003;59889;50.700;5.440;2023-07-08T07:10:41;11;11;
72023;PMS5003;59889;50.700;5.440;2023-07-08T07:13:06;15;15;
72023;PMS5003;59889;50.700;5.440;2023-07-08T07:15:32;12;12;
72023;PMS5003;59889;50.700;5.440;2023-07-08T07:17:58;18;15;
72023;PMS5003;59889;50.700;5.440;2023-07-08T07:20:24;13;13;
72023;PMS5003;59889;50.700;5.440;2023-07-08T07:22:50;15;15;
72023;PMS5003;59889;50.700;5.440;2023-07-08T07:25:15;14;14;
72023;PMS5003;59889;50.700;5.440;2023-07-08T07:27:41;17;15;
72023;PMS5003;59889;50.700;5.440;2023-07-08T07:30:07;17;13;
72023;PMS5003;59889;50.700;5.440;2023-07-08T07:32:32;14;12;
72023;PMS5003;59889;50.700;5.440;2023-07-08T07:34:58;16;15;
72023;PMS5003;59889;50.700;5.440;2023-07-08T07:37:24;14;11;
72023;PMS5003;59889;50.700;5.440;2023-07-08T07:39:50;12;12;
72023;PMS5003;59889;50.700;5.440;2023-07-08T07:42:16;22;18;
72023;PMS5003;59889;50.700;5.440;2023-07-08T07:44:41;14;13;
72023;PMS5003;59889;50.700;5.440;2023-07-08T07:47:07;15;14;
72023;PMS5003;59889;50.700;5.440;2023-07-08T07:49:32;16;12;
72023;PMS5003;59889;50.700;5.440;2023-07-08T07:51:58;14;14;
72023;PMS5003;59889;50.700;5.440;2023-07-08T07:54:24;16;14;
72023;PMS5003;59889;50.700;5.440;2023-07-08T07:56:50;11;11;
72023;PMS5003;59889;50.700;5.440;2023-07-08T07:59:16;16;14;
72023;PMS5003;59889;50.700;5.440;2023-07-08T08:01:41;13;13;
72023;PMS5003;59889;50.700;5.440;2023-07-08T08:04:07;14;13;
72023;PMS5003;59889;50.700;5.440;2023-07-08T08:06:33;14;14;
72023;PMS5003;59889;50.700;5.440;2023-07-08T08:08:58;12;12;
72023;PMS5003;59889;50.700;5.440;2023-07-08T08:11:24;13;13;
72023;PMS5003;59889;50.700;5.440;2023-07-08T08:13:49;13;12;
72023;PMS5003;59889;50.700;5.440;2023-07-08T08:16:15;15;12;
72023;PMS5003;59889;50.700;5.440;2023-07-08T08:18:41;15;14;
72023;PMS5003;59889;50.700;5.440;2023-07-08T08:21:06;17;14;
72023;PMS5003;59889;50.700;5.440;2023-07-08T08:23:32;18;16;
72023;PMS5003;59889;50.700;5.440;2023-07-08T08:25:58;14;13;
72023;PMS5003;59889;50.700;5.440;2023-07-08T08:28:23;16;14;
72023;PMS5003;59889;50.700;5.440;2023-07-08T08:30:49;14;14;
72023;PMS5003;59889;50.700;5.440;2023-07-08T08:33:14;13;12;
72023;PMS5003;59889;50.700;5.440;2023-07-08T08:35:41;15;13;
72023;PMS5003;59889;50.700;5.440;2023-07-08T08:38:06;16;16;
72023;PMS5003;59889;50.700;5.440;2023-07-08T08:40:32;14;13;
72023;PMS5003;59889;50.700;5.440;2023-07-08T08:42:58;15;12;
72023;PMS5003;59889;50.700;5.440;2023-07-08T08:45:23;16;15;
72023;PMS5003;59889;50.700;5.440;2023-07-08T08:47:50;14;13;
72023;PMS5003;59889;50.700;5.440;2023-07-08T08:50:24;16;14;
72023;PMS5003;59889;50.700;5.440;2023-07-08T08:52:40;17;15;
72023;PMS5003;59889;50.700;5.440;2023-07-08T08:55:07;16;15;
72023;PMS5003;59889;50.700;5.440;2023-07-08T08:57:34;18;15;
72023;PMS5003;59889;50.700;5.440;2023-07-08T08:59:57;12;12;
72023;PMS5003;59889;50.700;5.440;2023-07-08T09:02:25;14;12;
72023;PMS5003;59889;50.700;5.440;2023-07-08T09:04:48;13;12;
72023;PMS5003;59889;50.700;5.440;2023-07-08T09:07:14;15;11;
72023;PMS5003;59889;50.700;5.440;2023-07-08T09:09:41;17;13;
72023;PMS5003;59889;50.700;5.440;2023-07-08T09:12:06;15;14;
72023;PMS5003;59889;50.700;5.440;2023-07-08T09:14:33;14;13;
72023;PMS5003;59889;50.700;5.440;2023-07-08T09:16:58;12;12;
72023;PMS5003;59889;50.700;5.440;2023-07-08T09:19:23;13;13;
72023;PMS5003;59889;50.700;5.440;2023-07-08T09:21:49;11;10;
72023;PMS5003;59889;50.700;5.440;2023-07-08T09:24:15;10;10;
72023;PMS5003;59889;50.700;5.440;2023-07-08T09:26:40;14;12;
72023;PMS5003;59889;50.700;5.440;2023-07-08T09:29:07;12;12;
72023;PMS5003;59889;50.700;5.440;2023-07-08T09:31:31;13;11;
72023;PMS5003;59889;50.700;5.440;2023-07-08T09:36:23;15;13;
72023;PMS5003;59889;50.700;5.440;2023-07-08T09:38:49;14;13;
72023;PMS5003;59889;50.700;5.440;2023-07-08T09:41:17;11;11;
72023;PMS5003;59889;50.700;5.440;2023-07-08T09:43:41;11;10;
72023;PMS5003;59889;50.700;5.440;2023-07-08T09:46:08;15;13;
72023;PMS5003;59889;50.700;5.440;2023-07-08T09:48:33;15;13;
72023;PMS5003;59889;50.700;5.440;2023-07-08T09:50:58;13;12;
72023;PMS5003;59889;50.700;5.440;2023-07-08T09:53:24;16;13;
72023;PMS5003;59889;50.700;5.440;2023-07-08T09:55:50;12;12;
72023;PMS5003;59889;50.700;5.440;2023-07-08T09:58:19;15;15;
72023;PMS5003;59889;50.700;5.440;2023-07-08T10:00:41;11;10;
72023;PMS5003;59889;50.700;5.440;2023-07-08T10:03:11;12;11;
72023;PMS5003;59889;50.700;5.440;2023-07-08T10:05:34;11;11;
72023;PMS5003;59889;50.700;5.440;2023-07-08T10:07:59;13;13;
72023;PMS5003;59889;50.700;5.440;2023-07-08T10:10:26;13;12;
72023;PMS5003;59889;50.700;5.440;2023-07-08T10:12:53;11;11;
72023;PMS5003;59889;50.700;5.440;2023-07-08T10:15:17;13;13;
72023;PMS5003;59889;50.700;5.440;2023-07-08T10:17:41;11;10;
72023;PMS5003;59889;50.700;5.440;2023-07-08T10:20:10;14;12;
72023;PMS5003;59889;50.700;5.440;2023-07-08T10:22:36;19;18;
72023;PMS5003;59889;50.700;5.440;2023-07-08T10:25:02;12;11;
72023;PMS5003;59889;50.700;5.440;2023-07-08T10:27:27;15;14;
72023;PMS5003;59889;50.700;5.440;2023-07-08T10:29:52;12;12;
72023;PMS5003;59889;50.700;5.440;2023-07-08T10:32:17;11;11;
72023;PMS5003;59889;50.700;5.440;2023-07-08T10:34:42;11;10;
72023;PMS5003;59889;50.700;5.440;2023-07-08T10:37:09;13;11;
72023;PMS5003;59889;50.700;5.440;2023-07-08T10:42:00;13;13;
72023;PMS5003;59889;50.700;5.440;2023-07-08T10:44:26;13;10;
72023;PMS5003;59889;50.700;5.440;2023-07-08T10:46:52;10;9;
72023;PMS5003;59889;50.700;5.440;2023-07-08T10:49:21;10;10;
72023;PMS5003;59889;50.700;5.440;2023-07-08T10:51:44;12;12;
72023;PMS5003;59889;50.700;5.440;2023-07-08T10:54:13;13;13;
72023;PMS5003;59889;50.700;5.440;2023-07-08T10:56:35;11;11;
72023;PMS5003;59889;50.700;5.440;2023-07-08T10:59:06;11;10;
72023;PMS5003;59889;50.700;5.440;2023-07-08T11:01:27;13;12;
72023;PMS5003;59889;50.700;5.440;2023-07-08T11:03:55;16;13;
72023;PMS5003;59889;50.700;5.440;2023-07-08T11:06:18;13;12;
72023;PMS5003;59889;50.700;5.440;2023-07-08T11:08:44;10;10;
72023;PMS5003;59889;50.700;5.440;2023-07-08T11:11:09;8;8;
72023;PMS5003;59889;50.700;5.440;2023-07-08T11:13:34;10;9;
72023;PMS5003;59889;50.700;5.440;2023-07-08T11:16:00;11;10;
72023;PMS5003;59889;50.700;5.440;2023-07-08T11:18:28;10;10;
72023;PMS5003;59889;50.700;5.440;2023-07-08T11:20:58;10;10;
72023;PMS5003;59889;50.700;5.440;2023-07-08T11:23:21;13;13;
72023;PMS5003;59889;50.700;5.440;2023-07-08T11:25:43;13;10;
72023;PMS5003;59889;50.700;5.440;2023-07-08T11:28:10;16;13;
72023;PMS5003;59889;50.700;5.440;2023-07-08T11:30:34;24;21;
72023;PMS5003;59889;50.700;5.440;2023-07-08T11:33:02;23;22;
72023;PMS5003;59889;50.700;5.440;2023-07-08T11:35:32;23;22;
72023;PMS5003;59889;50.700;5.440;2023-07-08T11:37:50;20;20;
72023;PMS5003;59889;50.700;5.440;2023-07-08T11:40:18;29;25;
72023;PMS5003;59889;50.700;5.440;2023-07-08T11:42:42;29;28;
72023;PMS5003;59889;50.700;5.440;2023-07-08T11:45:08;26;26;
72023;PMS5003;59889;50.700;5.440;2023-07-08T11:47:33;27;26;
72023;PMS5003;59889;50.700;5.440;2023-07-08T11:49:58;26;26;
72023;PMS5003;59889;50.700;5.440;2023-07-08T11:52:23;25;24;
72023;PMS5003;59889;50.700;5.440;2023-07-08T11:54:54;26;25;
72023;PMS5003;59889;50.700;5.440;2023-07-08T11:57:16;30;28;
72023;PMS5003;59889;50.700;5.440;2023-07-08T11:59:40;29;28;
72023;PMS5003;59889;50.700;5.440;2023-07-08T12:02:10;25;24;
72023;PMS5003;59889;50.700;5.440;2023-07-08T12:04:31;27;25;
72023;PMS5003;59889;50.700;5.440;2023-07-08T12:07:03;26;23;
72023;PMS5003;59889;50.700;5.440;2023-07-08T12:09:23;27;26;
72023;PMS5003;59889;50.700;5.440;2023-07-08T12:11:47;24;23;
72023;PMS5003;59889;50.700;5.440;2023-07-08T12:14:12;22;20;
72023;PMS5003;59889;50.700;5.440;2023-07-08T12:16:38;21;19;
72023;PMS5003;59889;50.700;5.440;2023-07-08T12:19:04;22;22;
72023;PMS5003;59889;50.700;5.440;2023-07-08T12:21:29;17;17;
72023;PMS5003;59889;50.700;5.440;2023-07-08T12:23:54;19;19;
72023;PMS5003;59889;50.700;5.440;2023-07-08T12:26:20;17;17;
72023;PMS5003;59889;50.700;5.440;2023-07-08T12:28:45;19;17;
72023;PMS5003;59889;50.700;5.440;2023-07-08T12:31:10;19;17;
72023;PMS5003;59889;50.700;5.440;2023-07-08T12:33:36;16;15;
72023;PMS5003;59889;50.700;5.440;2023-07-08T12:36:02;16;16;
72023;PMS5003;59889;50.700;5.440;2023-07-08T12:38:30;15;14;
72023;PMS5003;59889;50.700;5.440;2023-07-08T12:40:54;14;14;
72023;PMS5003;59889;50.700;5.440;2023-07-08T12:43:19;17;16;
72023;PMS5003;59889;50.700;5.440;2023-07-08T12:45:44;19;17;
72023;PMS5003;59889;50.700;5.440;2023-07-08T12:48:09;12;11;
72023;PMS5003;59889;50.700;5.440;2023-07-08T12:50:35;13;13;
72023;PMS5003;59889;50.700;5.440;2023-07-08T12:53:03;13;12;
72023;PMS5003;59889;50.700;5.440;2023-07-08T12:55:27;13;13;
72023;PMS5003;59889;50.700;5.440;2023-07-08T12:57:53;14;14;
72023;PMS5003;59889;50.700;5.440;2023-07-08T13:00:21;14;13;
72023;PMS5003;59889;50.700;5.440;2023-07-08T13:02:44;12;12;
72023;PMS5003;59889;50.700;5.440;2023-07-08T13:05:10;14;13;
72023;PMS5003;59889;50.700;5.440;2023-07-08T13:07:37;13;11;
72023;PMS5003;59889;50.700;5.440;2023-07-08T13:10:02;16;14;
72023;PMS5003;59889;50.700;5.440;2023-07-08T13:12:28;12;11;
72023;PMS5003;59889;50.700;5.440;2023-07-08T13:14:54;13;12;
72023;PMS5003;59889;50.700;5.440;2023-07-08T13:17:19;11;10;
72023;PMS5003;59889;50.700;5.440;2023-07-08T13:19:45;11;11;
72023;PMS5003;59889;50.700;5.440;2023-07-08T13:22:12;13;12;
72023;PMS5003;59889;50.700;5.440;2023-07-08T13:24:37;11;11;
72023;PMS5003;59889;50.700;5.440;2023-07-08T13:27:04;13;12;
72023;PMS5003;59889;50.700;5.440;2023-07-08T13:29:33;11;11;
72023;PMS5003;59889;50.700;5.440;2023-07-08T13:31:56;10;10;
72023;PMS5003;59889;50.700;5.440;2023-07-08T13:34:20;12;10;
72023;PMS5003;59889;50.700;5.440;2023-07-08T13:36:46;14;13;
72023;PMS5003;59889;50.700;5.440;2023-07-08T13:39:14;14;14;
72023;PMS5003;59889;50.700;5.440;2023-07-08T13:41:36;12;11;
72023;PMS5003;59889;50.700;5.440;2023-07-08T13:44:04;14;12;
72023;PMS5003;59889;50.700;5.440;2023-07-08T13:46:28;14;12;
72023;PMS5003;59889;50.700;5.440;2023-07-08T13:48:54;13;12;
72023;PMS5003;59889;50.700;5.440;2023-07-08T13:51:21;10;10;
72023;PMS5003;59889;50.700;5.440;2023-07-08T13:53:46;11;11;
72023;PMS5003;59889;50.700;5.440;2023-07-08T13:56:12;12;12;
72023;PMS5003;59889;50.700;5.440;2023-07-08T13:58:41;12;10;
72023;PMS5003;59889;50.700;5.440;2023-07-08T14:01:02;11;10;
72023;PMS5003;59889;50.700;5.440;2023-07-08T14:03:27;17;17;
72023;PMS5003;59889;50.700;5.440;2023-07-08T14:05:53;12;12;
72023;PMS5003;59889;50.700;5.440;2023-07-08T14:08:18;13;13;
72023;PMS5003;59889;50.700;5.440;2023-07-08T14:10:44;12;11;
72023;PMS5003;59889;50.700;5.440;2023-07-08T14:13:10;15;13;
72023;PMS5003;59889;50.700;5.440;2023-07-08T14:15:36;13;12;
72023;PMS5003;59889;50.700;5.440;2023-07-08T14:18:02;12;12;
72023;PMS5003;59889;50.700;5.440;2023-07-08T14:20:28;13;11;
72023;PMS5003;59889;50.700;5.440;2023-07-08T14:22:53;11;11;
72023;PMS5003;59889;50.700;5.440;2023-07-08T14:25:19;11;10;
72023;PMS5003;59889;50.700;5.440;2023-07-08T14:27:45;11;10;
72023;PMS5003;59889;50.700;5.440;2023-07-08T14:30:11;13;12;
72023;PMS5003;59889;50.700;5.440;2023-07-08T14:32:37;10;10;
72023;PMS5003;59889;50.700;5.440;2023-07-08T14:37:28;17;15;
72023;PMS5003;59889;50.700;5.440;2023-07-08T14:39:54;11;10;
72023;PMS5003;59889;50.700;5.440;2023-07-08T14:42:20;12;11;
72023;PMS5003;59889;50.700;5.440;2023-07-08T14:44:46;11;9;
72023;PMS5003;59889;50.700;5.440;2023-07-08T14:47:12;15;13;
72023;PMS5003;59889;50.700;5.440;2023-07-08T14:49:37;11;9;
72023;PMS5003;59889;50.700;5.440;2023-07-08T14:52:03;9;9;
72023;PMS5003;59889;50.700;5.440;2023-07-08T14:54:28;10;10;
72023;PMS5003;59889;50.700;5.440;2023-07-08T14:56:54;9;9;
72023;PMS5003;59889;50.700;5.440;2023-07-08T14:59:20;8;8;
72023;PMS5003;59889;50.700;5.440;2023-07-08T15:01:45;10;10;
72023;PMS5003;59889;50.700;5.440;2023-07-08T15:04:12;11;10;
72023;PMS5003;59889;50.700;5.440;2023-07-08T15:06:37;10;10;
72023;PMS5003;59889;50.700;5.440;2023-07-08T15:09:03;10;9;
72023;PMS5003;59889;50.700;5.440;2023-07-08T15:11:28;12;12;
72023;PMS5003;59889;50.700;5.440;2023-07-08T15:13:54;12;11;
72023;PMS5003;59889;50.700;5.440;2023-07-08T15:16:20;9;8;
72023;PMS5003;59889;50.700;5.440;2023-07-08T15:18:46;10;10;
72023;PMS5003;59889;50.700;5.440;2023-07-08T15:21:12;13;11;
72023;PMS5003;59889;50.700;5.440;2023-07-08T15:23:37;9;9;
72023;PMS5003;59889;50.700;5.440;2023-07-08T15:26:03;10;10;
72023;PMS5003;59889;50.700;5.440;2023-07-08T15:28:35;11;9;
72023;PMS5003;59889;50.700;5.440;2023-07-08T15:30:55;9;9;
72023;PMS5003;59889;50.700;5.440;2023-07-08T15:33:20;11;11;
72023;PMS5003;59889;50.700;5.440;2023-07-08T15:35:46;7;7;
72023;PMS5003;59889;50.700;5.440;2023-07-08T15:38:12;9;9;
72023;PMS5003;59889;50.700;5.440;2023-07-08T15:40:38;10;9;
72023;PMS5003;59889;50.700;5.440;2023-07-08T15:43:04;9;9;
72023;PMS5003;59889;50.700;5.440;2023-07-08T15:45:30;11;10;
72023;PMS5003;59889;50.700;5.440;2023-07-08T15:47:55;11;10;
72023;PMS5003;59889;50.700;5.440;2023-07-08T15:50:21;11;11;
72023;PMS5003;59889;50.700;5.440;2023-07-08T15:52:47;11;11;
72023;PMS5003;59889;50.700;5.440;2023-07-08T15:55:12;15;13;
72023;PMS5003;59889;50.700;5.440;2023-07-08T15:57:40;10;10;
72023;PMS5003;59889;50.700;5.440;2023-07-08T16:00:04;13;12;
72023;PMS5003;59889;50.700;5.440;2023-07-08T16:02:29;10;10;
72023;PMS5003;59889;50.700;5.440;2023-07-08T16:04:55;10;9;
72023;PMS5003;59889;50.700;5.440;2023-07-08T16:07:20;12;12;
72023;PMS5003;59889;50.700;5.440;2023-07-08T16:09:46;14;11;
72023;PMS5003;59889;50.700;5.440;2023-07-08T16:12:13;13;12;
72023;PMS5003;59889;50.700;5.440;2023-07-08T16:14:38;11;11;
72023;PMS5003;59889;50.700;5.440;2023-07-08T16:17:07;13;11;
72023;PMS5003;59889;50.700;5.440;2023-07-08T16:19:30;13;12;
72023;PMS5003;59889;50.700;5.440;2023-07-08T16:21:55;15;13;
72023;PMS5003;59889;50.700;5.440;2023-07-08T16:24:21;16;14;